createdAt,value
2023-03-19T00:00:34.484Z,96.40
2023-03-19T00:03:01.413Z,96.40
2023-03-19T00:05:28.253Z,96.40
2023-03-19T00:07:55.021Z,96.50
2023-03-19T00:10:21.744Z,96.50
2023-03-19T00:12:48.398Z,96.30
2023-03-19T00:15:15.449Z,96.40
2023-03-19T00:17:42.922Z,96.50
2023-03-19T00:20:11.791Z,96.50
2023-03-19T00:22:39.922Z,96.60
2023-03-19T00:25:08.262Z,96.70
2023-03-19T00:27:36.151Z,96.70
2023-03-19T00:30:04.726Z,96.80
2023-03-19T00:32:33.350Z,96.90
2023-03-19T00:35:00.199Z,96.90
2023-03-19T00:37:27.435Z,96.90
2023-03-19T00:39:54.139Z,96.90
2023-03-19T00:42:20.906Z,96.90
2023-03-19T00:44:47.619Z,97.00
2023-03-19T00:47:14.323Z,97.00
2023-03-19T00:49:41.109Z,97.10
2023-03-19T00:52:08.357Z,97.20
2023-03-19T00:54:35.285Z,97.30
2023-03-19T00:57:02.074Z,97.40
2023-03-19T00:59:28.853Z,97.60
2023-03-19T01:01:55.506Z,97.60
2023-03-19T01:04:23.260Z,97.70
2023-03-19T01:06:50.217Z,97.80
2023-03-19T01:09:17.176Z,97.80
2023-03-19T01:11:44.055Z,97.90
2023-03-19T01:14:11.642Z,97.90
2023-03-19T01:16:38.379Z,98.00
2023-03-19T01:19:06.090Z,98.00
2023-03-19T01:21:33.344Z,98.10
2023-03-19T01:24:00.424Z,98.20
2023-03-19T01:26:27.776Z,98.20
2023-03-19T01:28:54.657Z,98.10
2023-03-19T01:31:22.051Z,98.20
2023-03-19T01:33:48.864Z,98.10
2023-03-19T01:36:15.589Z,98.10
2023-03-19T01:38:42.603Z,98.80
2023-03-19T01:41:09.640Z,98.10
2023-03-19T01:43:36.707Z,99.00
2023-03-19T01:46:15.703Z,98.60
2023-03-19T01:48:46.665Z,98.90
2023-03-19T01:51:17.225Z,99.00
2023-03-19T01:53:49.803Z,98.80
2023-03-19T01:56:38.331Z,99.10
2023-03-19T01:59:15.383Z,98.90
2023-03-19T02:01:56.820Z,98.70
2023-03-19T02:04:26.670Z,98.50
2023-03-19T02:06:57.496Z,98.30
2023-03-19T02:09:26.154Z,98.00
2023-03-19T02:11:54.531Z,97.70
2023-03-19T02:14:21.442Z,97.40
2023-03-19T02:16:48.611Z,97.30
2023-03-19T02:19:28.502Z,96.90
2023-03-19T02:21:56.369Z,96.80
2023-03-19T02:24:35.190Z,96.80
2023-03-19T02:27:02.432Z,96.80
2023-03-19T02:29:29.053Z,96.70
2023-03-19T02:31:55.723Z,96.70
2023-03-19T02:34:22.406Z,96.70
2023-03-19T02:37:00.762Z,96.70
2023-03-19T02:40:04.437Z,96.80
2023-03-19T02:42:31.232Z,96.80
2023-03-19T02:44:58.248Z,97.10
2023-03-19T02:47:26.142Z,97.20
2023-03-19T02:49:53.111Z,97.10
2023-03-19T02:52:19.765Z,97.40
2023-03-19T02:54:46.722Z,97.50
2023-03-19T02:57:13.600Z,97.60
2023-03-19T02:59:40.384Z,97.90
2023-03-19T03:02:07.201Z,98.00
2023-03-19T03:04:35.240Z,98.10
2023-03-19T03:07:02.316Z,98.30
2023-03-19T03:09:28.967Z,98.30
2023-03-19T03:11:55.839Z,98.30
2023-03-19T03:14:22.902Z,98.40
2023-03-19T03:16:49.616Z,99.40
2023-03-19T03:19:16.843Z,98.70
2023-03-19T03:21:43.536Z,98.80
2023-03-19T03:24:11.000Z,98.90
2023-03-19T03:26:38.935Z,99.70
2023-03-19T03:29:07.052Z,99.10
2023-03-19T03:31:34.747Z,99.20
2023-03-19T03:34:02.206Z,99.20
2023-03-19T03:36:28.966Z,99.30
2023-03-19T03:38:55.948Z,99.30
2023-03-19T03:41:22.666Z,99.40
2023-03-19T03:43:49.405Z,99.50
2023-03-19T03:46:16.199Z,99.50
2023-03-19T03:48:42.832Z,99.50
2023-03-19T03:51:10.107Z,99.60
2023-03-19T03:53:36.942Z,99.90
2023-03-19T03:56:03.725Z,99.90
2023-03-19T03:58:30.358Z,99.90
2023-03-19T04:00:57.047Z,99.90
2023-03-19T04:03:24.627Z,99.90
2023-03-19T04:05:51.727Z,99.90
2023-03-19T04:08:18.410Z,99.90
2023-03-19T04:10:45.134Z,99.90
2023-03-19T04:13:12.844Z,99.90
2023-03-19T04:15:42.740Z,99.90
2023-03-19T04:18:09.584Z,99.90
2023-03-19T04:20:36.679Z,99.90
2023-03-19T04:23:03.465Z,99.90
2023-03-19T04:25:30.459Z,99.90
2023-03-19T04:27:58.172Z,99.90
2023-03-19T04:30:24.937Z,99.90
2023-03-19T04:32:51.581Z,99.90
2023-03-19T04:35:18.266Z,99.90
2023-03-19T04:37:48.402Z,99.90
2023-03-19T04:40:16.910Z,99.90
2023-03-19T04:42:44.612Z,99.90
2023-03-19T04:45:11.847Z,99.90
2023-03-19T04:47:38.899Z,99.90
2023-03-19T04:50:07.870Z,99.90
2023-03-19T04:52:34.576Z,99.90
2023-03-19T04:55:01.269Z,99.90
2023-03-19T04:57:27.982Z,99.90
2023-03-19T04:59:54.696Z,99.90
2023-03-19T05:02:21.917Z,99.90
2023-03-19T05:04:48.722Z,99.90
2023-03-19T05:07:15.442Z,99.90
2023-03-19T05:09:43.833Z,99.90
2023-03-19T05:12:12.266Z,99.90
2023-03-19T05:14:39.146Z,99.90
2023-03-19T05:17:05.909Z,99.90
2023-03-19T05:19:32.661Z,99.90
2023-03-19T05:21:59.388Z,99.90
2023-03-19T05:24:26.108Z,99.90
2023-03-19T05:26:52.772Z,99.90
2023-03-19T05:29:19.424Z,99.90
2023-03-19T05:31:46.148Z,99.90
2023-03-19T05:34:13.001Z,99.90
2023-03-19T05:36:40.078Z,99.90
2023-03-19T05:39:06.850Z,99.90
2023-03-19T05:41:33.540Z,99.90
2023-03-19T05:44:00.252Z,99.90
2023-03-19T05:46:27.396Z,99.90
2023-03-19T05:48:54.180Z,99.90
2023-03-19T05:51:20.967Z,99.90
2023-03-19T05:53:47.702Z,99.90
2023-03-19T05:56:14.463Z,99.90
2023-03-19T05:58:41.132Z,99.90
2023-03-19T06:01:07.841Z,99.90
2023-03-19T06:03:34.505Z,99.90
2023-03-19T06:06:01.299Z,99.90
2023-03-19T06:08:28.018Z,99.90
2023-03-19T06:10:54.728Z,99.90
2023-03-19T06:13:21.439Z,99.90
2023-03-19T06:15:49.757Z,99.90
2023-03-19T06:18:17.606Z,99.90
2023-03-19T06:20:44.449Z,99.90
2023-03-19T06:23:11.067Z,99.90
2023-03-19T06:25:37.935Z,99.90
2023-03-19T06:28:05.714Z,99.90
2023-03-19T06:30:33.842Z,99.90
2023-03-19T06:33:00.786Z,99.90
2023-03-19T06:35:27.640Z,99.90
2023-03-19T06:37:54.321Z,99.90
2023-03-19T06:40:21.020Z,99.90
2023-03-19T06:42:48.242Z,99.90
2023-03-19T06:45:21.830Z,99.90
2023-03-19T06:47:48.514Z,99.90
2023-03-19T06:50:17.862Z,99.90
2023-03-19T06:52:44.567Z,99.90
2023-03-19T06:55:12.275Z,99.90
2023-03-19T06:57:39.259Z,99.90
2023-03-19T07:00:06.978Z,99.90
2023-03-19T07:02:33.717Z,99.90
2023-03-19T07:05:00.412Z,99.90
2023-03-19T07:07:27.099Z,99.90
2023-03-19T07:09:53.821Z,99.90
2023-03-19T07:12:20.762Z,99.90
2023-03-19T07:14:47.419Z,97.20
2023-03-19T07:17:14.211Z,93.90
2023-03-19T07:19:41.098Z,88.00
2023-03-19T07:22:07.823Z,85.00
2023-03-19T07:24:34.448Z,84.50
2023-03-19T07:27:02.240Z,80.80
2023-03-19T07:29:29.010Z,77.40
2023-03-19T07:31:55.902Z,74.80
2023-03-19T07:34:23.181Z,74.40
2023-03-19T07:36:49.835Z,73.20
2023-03-19T07:39:16.632Z,72.90
2023-03-19T07:41:47.608Z,75.40
2023-03-19T07:44:15.952Z,76.60
2023-03-19T07:46:43.383Z,76.80
2023-03-19T07:49:10.308Z,75.50
2023-03-19T07:51:37.050Z,76.40
2023-03-19T07:54:03.869Z,77.10
2023-03-19T07:56:31.125Z,76.00
2023-03-19T07:58:57.920Z,76.80
2023-03-19T08:01:24.609Z,78.10
2023-03-19T08:03:51.182Z,77.10
2023-03-19T08:06:17.932Z,77.10
2023-03-19T08:08:44.555Z,80.00
2023-03-19T08:11:11.569Z,73.60
2023-03-19T08:13:38.314Z,71.00
2023-03-19T08:16:05.223Z,69.40
2023-03-19T08:18:32.313Z,70.70
2023-03-19T08:20:58.907Z,72.30
2023-03-19T08:23:26.966Z,70.60
2023-03-19T08:25:55.434Z,70.20
2023-03-19T08:28:22.341Z,70.60
2023-03-19T08:30:49.236Z,69.40
2023-03-19T08:33:16.591Z,70.50
2023-03-19T08:35:43.526Z,69.30
2023-03-19T08:38:11.070Z,70.30
2023-03-19T08:40:37.782Z,70.80
2023-03-19T08:43:04.622Z,73.60
2023-03-19T08:45:31.297Z,71.50
2023-03-19T08:47:58.474Z,72.10
2023-03-19T08:50:25.617Z,73.00
2023-03-19T08:52:52.677Z,74.00
2023-03-19T08:55:19.521Z,74.90
2023-03-19T08:57:46.290Z,73.30
2023-03-19T09:00:13.711Z,72.70
2023-03-19T09:02:40.433Z,73.20
2023-03-19T09:05:07.353Z,71.10
2023-03-19T09:07:34.003Z,71.10
2023-03-19T09:10:00.890Z,72.80
2023-03-19T09:12:27.626Z,71.40
2023-03-19T09:14:54.271Z,69.50
2023-03-19T09:17:21.018Z,68.20
2023-03-19T09:19:48.886Z,67.60
2023-03-19T09:22:15.540Z,67.60
2023-03-19T09:24:42.255Z,66.30
2023-03-19T09:27:08.964Z,65.50
2023-03-19T09:29:36.044Z,65.90
2023-03-19T09:32:02.744Z,66.00
2023-03-19T09:34:29.550Z,67.00
2023-03-19T09:36:56.211Z,66.10
2023-03-19T09:39:22.838Z,67.30
2023-03-19T09:42:13.600Z,64.40
2023-03-19T09:44:44.187Z,64.10
2023-03-19T09:47:26.041Z,62.60
2023-03-19T09:49:59.333Z,62.00
2023-03-19T09:52:47.926Z,58.50
2023-03-19T09:55:20.692Z,57.70
2023-03-19T09:57:48.223Z,60.20
2023-03-19T10:00:24.565Z,58.00
2023-03-19T10:02:57.075Z,54.70
2023-03-19T10:05:51.958Z,55.30
2023-03-19T10:08:42.847Z,55.50
2023-03-19T10:11:45.798Z,52.10
2023-03-19T10:14:21.404Z,54.10
2023-03-19T10:16:50.802Z,54.30
2023-03-19T10:19:24.332Z,55.20
2023-03-19T10:21:57.110Z,53.30
2023-03-19T10:24:34.800Z,52.60
2023-03-19T10:27:10.566Z,51.20
2023-03-19T10:29:38.993Z,49.40
2023-03-19T10:32:24.572Z,45.80
2023-03-19T10:34:54.826Z,44.30
2023-03-19T10:37:28.740Z,47.60
2023-03-19T10:40:00.209Z,45.00
2023-03-19T10:42:56.218Z,41.70
2023-03-19T10:45:30.327Z,37.30
2023-03-19T10:47:58.055Z,38.80
2023-03-19T10:50:52.020Z,36.00
2023-03-19T10:53:18.638Z,37.40
2023-03-19T10:55:54.304Z,37.70
2023-03-19T10:58:25.832Z,39.60
2023-03-19T11:01:05.674Z,39.40
2023-03-19T11:03:36.674Z,41.30
2023-03-19T11:06:33.688Z,39.10
2023-03-19T11:09:02.167Z,41.60
2023-03-19T11:11:53.342Z,39.90
2023-03-19T11:14:24.443Z,41.10
2023-03-19T11:17:28.216Z,42.60
2023-03-19T11:19:57.506Z,42.50
2023-03-19T11:22:33.907Z,41.50
2023-03-19T11:25:14.915Z,40.90
2023-03-19T11:27:42.059Z,42.20
2023-03-19T11:30:18.888Z,42.50
2023-03-19T11:33:29.319Z,41.90
2023-03-19T11:36:14.065Z,41.20
2023-03-19T11:38:43.681Z,46.00
2023-03-19T11:41:24.742Z,45.50
2023-03-19T11:44:01.996Z,42.80
2023-03-19T11:46:55.614Z,41.70
2023-03-19T11:49:44.261Z,41.20
2023-03-19T11:52:23.094Z,41.80
2023-03-19T11:54:49.658Z,38.10
2023-03-19T11:57:28.449Z,40.50
2023-03-19T12:00:03.726Z,38.40
2023-03-19T12:02:55.904Z,35.80
2023-03-19T12:05:35.753Z,37.00
2023-03-19T12:08:48.051Z,38.30
2023-03-19T12:11:40.160Z,37.90
2023-03-19T12:14:12.889Z,41.40
2023-03-19T12:16:46.789Z,37.10
2023-03-19T12:19:51.572Z,35.60
2023-03-19T12:22:37.086Z,34.20
2023-03-19T12:25:21.268Z,37.50
2023-03-19T12:27:53.121Z,38.30
2023-03-19T12:30:43.733Z,38.10
2023-03-19T12:33:46.517Z,37.20
2023-03-19T12:36:18.277Z,36.90
2023-03-19T12:38:50.907Z,37.90
2023-03-19T12:41:27.039Z,37.50
2023-03-19T12:44:24.005Z,38.20
2023-03-19T12:47:02.139Z,38.60
2023-03-19T12:49:44.053Z,37.30
2023-03-19T12:52:24.324Z,36.60
2023-03-19T12:55:04.920Z,39.00
2023-03-19T12:57:49.737Z,38.20
2023-03-19T13:00:26.313Z,37.40
2023-03-19T13:03:22.964Z,36.80
2023-03-19T13:05:59.575Z,36.90
2023-03-19T13:08:39.654Z,37.20
2023-03-19T13:11:13.620Z,38.40
2023-03-19T13:13:58.618Z,38.30
2023-03-19T13:16:52.996Z,36.10
2023-03-19T13:19:54.078Z,33.40
2023-03-19T13:22:28.666Z,33.20
2023-03-19T13:24:56.592Z,33.00
2023-03-19T13:27:34.612Z,29.90
2023-03-19T13:30:15.855Z,32.80
2023-03-19T13:32:51.067Z,31.20
2023-03-19T13:35:37.012Z,30.00
2023-03-19T13:38:15.502Z,30.80
2023-03-19T13:40:52.178Z,31.30
2023-03-19T13:43:27.971Z,34.90
2023-03-19T13:46:05.908Z,33.40
2023-03-19T13:48:33.199Z,31.40
2023-03-19T13:51:26.692Z,32.00
2023-03-19T13:54:23.076Z,33.30
2023-03-19T13:57:07.745Z,33.40
2023-03-19T13:59:38.571Z,32.80
2023-03-19T14:02:26.372Z,33.10
2023-03-19T14:05:04.128Z,32.90
2023-03-19T14:07:42.256Z,31.80
2023-03-19T14:10:15.150Z,31.30
2023-03-19T14:12:44.241Z,33.30
2023-03-19T14:15:10.799Z,33.00
2023-03-19T14:17:47.216Z,33.40
2023-03-19T14:20:15.758Z,35.30
2023-03-19T14:23:08.918Z,35.30
2023-03-19T14:26:16.322Z,35.00
2023-03-19T14:28:54.790Z,34.20
2023-03-19T14:31:24.607Z,33.10
2023-03-19T14:34:18.681Z,33.40
2023-03-19T14:37:18.669Z,34.30
2023-03-19T14:39:49.146Z,36.20
2023-03-19T14:42:22.281Z,35.50
2023-03-19T14:45:14.431Z,37.30
2023-03-19T14:48:15.183Z,37.30
2023-03-19T14:51:19.255Z,37.00
2023-03-19T14:54:04.821Z,38.40
2023-03-19T14:56:34.331Z,38.20
2023-03-19T14:59:04.097Z,38.30
2023-03-19T15:01:33.523Z,37.70
2023-03-19T15:04:07.960Z,39.10
2023-03-19T15:06:38.351Z,39.90
2023-03-19T15:09:21.281Z,40.60
2023-03-19T15:11:57.879Z,40.40
2023-03-19T15:14:24.516Z,41.10
2023-03-19T15:17:09.223Z,41.70
2023-03-19T15:19:38.542Z,42.30
2023-03-19T15:22:12.437Z,42.50
2023-03-19T15:24:39.276Z,44.20
2023-03-19T15:27:24.653Z,46.50
2023-03-19T15:29:52.237Z,47.90
2023-03-19T15:32:52.120Z,48.60
2023-03-19T15:35:24.807Z,50.40
2023-03-19T15:37:55.487Z,49.30
2023-03-19T15:40:25.488Z,49.70
2023-03-19T15:42:53.080Z,50.20
2023-03-19T15:45:24.286Z,50.60
2023-03-19T15:48:08.158Z,50.10
2023-03-19T15:50:40.732Z,51.70
2023-03-19T15:53:22.565Z,50.90
2023-03-19T15:55:54.042Z,51.50
2023-03-19T15:58:27.159Z,51.70
2023-03-19T16:00:55.599Z,51.80
2023-03-19T16:03:44.227Z,49.80
2023-03-19T16:06:17.562Z,51.00
2023-03-19T16:09:25.949Z,51.20
2023-03-19T16:11:54.203Z,51.80
2023-03-19T16:14:35.196Z,52.00
2023-03-19T16:17:10.944Z,52.20
2023-03-19T16:19:40.129Z,52.50
2023-03-19T16:22:16.312Z,52.60
2023-03-19T16:24:45.424Z,52.90
2023-03-19T16:27:18.374Z,51.60
2023-03-19T16:29:47.887Z,51.70
2023-03-19T16:32:22.279Z,51.70
2023-03-19T16:34:52.479Z,52.20
2023-03-19T16:37:32.121Z,52.80
2023-03-19T16:40:21.713Z,52.50
2023-03-19T16:42:50.865Z,51.20
2023-03-19T16:45:17.980Z,51.80
2023-03-19T16:47:49.898Z,50.90
2023-03-19T16:50:18.723Z,51.60
2023-03-19T16:52:46.494Z,51.60
2023-03-19T16:55:21.717Z,52.10
2023-03-19T16:57:59.049Z,52.00
2023-03-19T17:00:29.044Z,53.00
2023-03-19T17:02:57.034Z,52.80
2023-03-19T17:05:26.031Z,53.50
2023-03-19T17:07:55.516Z,53.50
2023-03-19T17:10:25.200Z,53.60
2023-03-19T17:12:54.964Z,53.90
2023-03-19T17:15:35.416Z,53.70
2023-03-19T17:18:03.479Z,54.60
2023-03-19T17:20:39.554Z,54.50
2023-03-19T17:23:13.626Z,55.30
2023-03-19T17:25:40.588Z,55.70
2023-03-19T17:28:07.428Z,55.80
2023-03-19T17:30:34.396Z,56.00
2023-03-19T17:33:01.433Z,56.10
2023-03-19T17:35:28.211Z,56.40
2023-03-19T17:37:55.578Z,56.80
2023-03-19T17:40:25.011Z,57.30
2023-03-19T17:42:52.521Z,57.90
2023-03-19T17:45:23.118Z,58.10
2023-03-19T17:47:53.283Z,58.40
2023-03-19T17:50:24.106Z,58.90
2023-03-19T17:52:52.243Z,59.70
2023-03-19T17:55:25.541Z,59.70
2023-03-19T17:57:53.077Z,60.00
2023-03-19T18:00:21.755Z,60.40
2023-03-19T18:02:50.922Z,61.00
2023-03-19T18:05:20.471Z,61.20
2023-03-19T18:07:48.666Z,61.60
2023-03-19T18:10:27.518Z,61.90
2023-03-19T18:12:54.764Z,62.00
2023-03-19T18:15:22.569Z,62.30
2023-03-19T18:17:52.638Z,62.70
2023-03-19T18:20:21.482Z,63.40
2023-03-19T18:22:48.257Z,63.50
2023-03-19T18:25:21.996Z,63.90
2023-03-19T18:27:49.385Z,64.30
2023-03-19T18:30:18.310Z,64.70
2023-03-19T18:32:49.776Z,64.70
2023-03-19T18:35:27.468Z,65.10
2023-03-19T18:37:54.646Z,65.30
2023-03-19T18:40:24.681Z,65.10
2023-03-19T18:42:51.344Z,64.80
2023-03-19T18:45:18.416Z,64.90
2023-03-19T18:47:47.210Z,64.20
2023-03-19T18:50:20.573Z,63.30
2023-03-19T18:52:49.778Z,62.80
2023-03-19T18:55:17.532Z,63.30
2023-03-19T18:57:53.805Z,63.90
2023-03-19T19:00:32.672Z,64.30
2023-03-19T19:02:59.920Z,64.40
2023-03-19T19:05:28.825Z,63.30
2023-03-19T19:08:01.239Z,63.60
2023-03-19T19:10:34.383Z,63.60
2023-03-19T19:13:02.051Z,64.10
2023-03-19T19:15:32.329Z,63.60
2023-03-19T19:17:59.242Z,62.90
2023-03-19T19:20:28.405Z,63.10
2023-03-19T19:22:55.905Z,63.10
2023-03-19T19:25:27.556Z,63.30
2023-03-19T19:28:00.903Z,63.30
2023-03-19T19:30:28.704Z,63.30
2023-03-19T19:32:55.435Z,63.20
2023-03-19T19:35:24.963Z,63.10
2023-03-19T19:37:52.564Z,63.30
2023-03-19T19:40:21.438Z,63.60
2023-03-19T19:42:52.237Z,63.40
2023-03-19T19:45:41.508Z,63.60
2023-03-19T19:48:14.917Z,63.60
2023-03-19T19:50:42.046Z,64.30
2023-03-19T19:53:09.090Z,65.20
2023-03-19T19:55:36.624Z,65.60
2023-03-19T19:58:03.961Z,65.80
2023-03-19T20:00:31.675Z,67.00
2023-03-19T20:02:59.769Z,67.20
2023-03-19T20:05:30.155Z,67.70
2023-03-19T20:07:59.658Z,68.20
2023-03-19T20:10:29.515Z,68.70
2023-03-19T20:12:59.525Z,68.60
2023-03-19T20:15:35.818Z,68.40
2023-03-19T20:18:04.945Z,68.70
2023-03-19T20:20:33.144Z,68.50
2023-03-19T20:23:02.074Z,68.80
2023-03-19T20:25:32.474Z,69.00
2023-03-19T20:28:01.338Z,69.30
2023-03-19T20:30:34.524Z,70.00
2023-03-19T20:33:02.077Z,70.60
2023-03-19T20:35:31.216Z,70.90
2023-03-19T20:37:59.405Z,71.10
2023-03-19T20:40:43.580Z,71.50
2023-03-19T20:43:31.873Z,71.30
2023-03-19T20:46:01.909Z,70.80
2023-03-19T20:48:29.160Z,70.90
2023-03-19T20:50:56.469Z,71.60
2023-03-19T20:53:23.547Z,72.50
2023-03-19T20:55:50.961Z,72.50
2023-03-19T20:58:34.485Z,73.40
2023-03-19T21:01:02.742Z,74.10
2023-03-19T21:03:31.388Z,75.00
2023-03-19T21:06:03.859Z,75.90
2023-03-19T21:08:37.207Z,76.00
2023-03-19T21:11:04.426Z,76.60
2023-03-19T21:13:32.038Z,76.80
2023-03-19T21:15:59.543Z,77.20
2023-03-19T21:18:26.384Z,77.10
2023-03-19T21:20:55.748Z,77.30
2023-03-19T21:23:28.030Z,77.80
2023-03-19T21:25:54.707Z,77.70
2023-03-19T21:28:31.499Z,77.70
2023-03-19T21:30:58.318Z,77.70
2023-03-19T21:33:30.784Z,77.80
2023-03-19T21:35:58.534Z,78.00
2023-03-19T21:38:25.372Z,78.10
2023-03-19T21:40:55.397Z,78.90
2023-03-19T21:43:30.326Z,78.90
2023-03-19T21:45:57.553Z,78.90
2023-03-19T21:48:29.124Z,79.00
2023-03-19T21:50:56.482Z,79.10
2023-03-19T21:53:23.881Z,79.20
2023-03-19T21:55:52.620Z,79.50
2023-03-19T21:58:29.547Z,79.70
2023-03-19T22:00:56.349Z,80.00
2023-03-19T22:03:23.572Z,80.30
2023-03-19T22:05:51.824Z,80.70
2023-03-19T22:08:20.398Z,81.20
2023-03-19T22:10:56.678Z,81.70
2023-03-19T22:13:26.128Z,82.20
2023-03-19T22:15:54.352Z,82.70
2023-03-19T22:18:21.514Z,82.90
2023-03-19T22:20:50.338Z,83.20
2023-03-19T22:23:18.236Z,83.60
2023-03-19T22:25:47.895Z,83.90
2023-03-19T22:28:24.503Z,84.20
2023-03-19T22:30:51.190Z,84.40
2023-03-19T22:33:22.136Z,84.60
2023-03-19T22:35:49.612Z,85.00
2023-03-19T22:38:17.874Z,85.30
2023-03-19T22:40:52.870Z,85.50
2023-03-19T22:43:36.271Z,85.80
2023-03-19T22:46:11.817Z,86.40
2023-03-19T22:48:38.954Z,86.80
2023-03-19T22:51:06.634Z,86.90
2023-03-19T22:53:35.531Z,87.10
2023-03-19T22:56:03.283Z,87.30
2023-03-19T22:58:30.668Z,87.60
2023-03-19T23:00:57.878Z,87.40
2023-03-19T23:03:27.290Z,87.50
2023-03-19T23:05:59.161Z,87.80
2023-03-19T23:08:26.213Z,88.00
2023-03-19T23:10:53.414Z,88.20
2023-03-19T23:13:23.066Z,88.30
2023-03-19T23:15:54.884Z,88.50
2023-03-19T23:18:27.532Z,88.60
2023-03-19T23:20:54.297Z,88.70
2023-03-19T23:23:21.037Z,88.70
2023-03-19T23:25:47.724Z,88.70
2023-03-19T23:28:29.100Z,88.60
2023-03-19T23:30:56.229Z,88.60
2023-03-19T23:33:26.746Z,88.60
2023-03-19T23:35:56.387Z,88.70
2023-03-19T23:38:23.148Z,88.90
2023-03-19T23:40:51.774Z,89.10
2023-03-19T23:43:24.989Z,88.90
2023-03-19T23:45:54.155Z,89.00
2023-03-19T23:48:25.783Z,88.90
2023-03-19T23:50:53.092Z,89.10
2023-03-19T23:53:25.658Z,89.30
2023-03-19T23:55:57.965Z,89.50
2023-03-19T23:58:39.497Z,89.70
